Warning: Javascript must be enabled to use all the features on this page!


Page Loading - Please Wait...

Click to hideNews Bulletins

Peak Streamflow for the Nation

USGS 10336676 WARD C AT HWY 89 NR TAHOE PINES CA

Placer County, California
Hydrologic Unit Code 16050101
Latitude  39°07'56", Longitude 120°09'24" NAD27
Drainage area 9.70  square miles
Output formats
Table
Graph
Tab-separated file
peakfq (watstore) format
Reselect output format
Water
Year
Date Gage
Height
(feet)
Stream-
flow
(cfs)
1973 1973-05-16 5.85 298
1974 1973-11-12 6.65 800
1975 1975-06-06 6.22 492
1976 1975-10-26 5.51 178
1977 1977-06-01 4.85 51.0
1978 1978-06-07 5.81 271
1979 1979-05-21 5.85 283
1980 1980-01-13 7.76 1,450
1981 1981-05-01 5.57 148
1982 1981-12-19 8.05 1,800
1983 1983-06-10 6.38 637
1984 1983-11-11 5.66 351
1985 1985-05-02 5.29 164
1986 1986-03-08 7.03 860
1987 1987-04-28 5.132 113
1988 1988-05-17 4.761,2 48.0
1989 1989-05-07 5.802 213
1990 1990-04-15 5.192 87.0
1991 1991-05-25 5.382 119
1992 1992-04-17 5.332 110
1993 1993-05-31 6.482 461
1994 1994-05-11 5.172 91.0
1995 1995-03-09 6.592 513
1996 1996-05-16 7.47 1,020
1997 1997-01-01 9.36 2,530
1998 1998-06-07 6.11 370
1999 1999-05-26 6.09 396
2000 2000-05-08 6.15 429
2001 2001-05-15 5.72 202
2002 2002-04-14 5.73 218
2003 2003-05-29 6.04 357
2004 2004-05-04 5.58 198
2005 2005-05-19 7.21 945
2006 2005-12-31 8.44 1,660
2007 2007-05-10 5.282 88.0
2008 2008-05-18 5.732 196
2009 2009-05-05 6.36 425
2010 2010-06-06 6.25 363
2011 2011-06-22 6.72 493
2012 2012-04-26 6.44 595
2013 2012-12-02 7.61 1,190
2014 2014-02-09 6.341 1052
2015 2015-02-08 6.20 341
2016 2016-03-06 6.15 321
2017 2017-01-08 8.57 1,860
2018 2018-04-07 8.03 1,340
2019 2019-06-05 7.372 488
2020 2020-05-17 6.92 273
?
  Peak Gage-Height Qualification Codes.
?
  Peak Streamflow Qualification Codes.